createdAt,value
2023-12-16T00:02:18.319Z,19.77
2023-12-16T00:04:47.930Z,19.67
2023-12-16T00:07:14.739Z,19.92
2023-12-16T00:09:41.513Z,18.48
2023-12-16T00:12:08.697Z,17.53
2023-12-16T00:14:39.916Z,20.98
2023-12-16T00:17:06.926Z,20.60
2023-12-16T00:19:33.717Z,17.90
2023-12-16T00:22:00.407Z,18.27
2023-12-16T00:24:27.220Z,17.97
2023-12-16T00:26:55.021Z,21.50
2023-12-16T00:29:22.221Z,22.83
2023-12-16T00:31:48.896Z,20.02
2023-12-16T00:34:16.093Z,19.42
2023-12-16T00:36:43.495Z,18.40
2023-12-16T00:39:10.521Z,19.67
2023-12-16T00:41:37.613Z,19.92
2023-12-16T00:44:04.409Z,20.42
2023-12-16T00:46:32.654Z,21.50
2023-12-16T00:48:59.409Z,22.13
2023-12-16T00:51:26.154Z,20.13
2023-12-16T00:53:52.880Z,20.52
2023-12-16T00:56:22.331Z,19.77
2023-12-16T00:58:50.641Z,22.98
2023-12-16T01:01:17.332Z,18.17
2023-12-16T01:03:44.089Z,18.67
2023-12-16T01:06:10.737Z,22.10
2023-12-16T01:08:37.642Z,20.55
2023-12-16T01:11:04.617Z,22.67
2023-12-16T01:13:31.332Z,20.93
2023-12-16T01:15:58.150Z,23.15
2023-12-16T01:18:25.534Z,23.13
2023-12-16T01:20:52.504Z,19.80
2023-12-16T01:23:19.176Z,20.77
2023-12-16T01:25:45.827Z,20.17
2023-12-16T01:28:12.478Z,21.77
2023-12-16T01:30:39.355Z,21.90
2023-12-16T01:33:06.255Z,21.23
2023-12-16T01:35:32.861Z,22.38
2023-12-16T01:37:59.500Z,18.83
2023-12-16T01:40:26.364Z,19.38
2023-12-16T01:42:56.377Z,20.50
2023-12-16T01:45:23.054Z,20.73
2023-12-16T01:47:50.832Z,18.80
2023-12-16T01:50:18.005Z,18.97
2023-12-16T01:52:45.428Z,17.02
2023-12-16T01:55:13.149Z,20.45
2023-12-16T01:57:41.493Z,17.83
2023-12-16T02:00:09.028Z,19.60
2023-12-16T02:02:35.708Z,19.53
2023-12-16T02:05:02.376Z,18.35
2023-12-16T02:07:29.014Z,20.60
2023-12-16T02:09:56.782Z,19.63
2023-12-16T02:12:23.634Z,18.23
2023-12-16T02:14:50.313Z,18.30
2023-12-16T02:17:17.002Z,20.85
2023-12-16T02:19:46.151Z,16.95
2023-12-16T02:22:13.669Z,18.67
2023-12-16T02:24:43.430Z,18.55
2023-12-16T02:27:10.226Z,17.90
2023-12-16T02:29:38.054Z,18.77
2023-12-16T02:32:05.212Z,19.20
2023-12-16T02:34:32.020Z,18.02
2023-12-16T02:36:58.816Z,18.17
2023-12-16T02:39:25.462Z,19.33
2023-12-16T02:41:52.153Z,18.75
2023-12-16T02:44:18.837Z,19.35
2023-12-16T02:46:45.432Z,20.13
2023-12-16T02:49:12.138Z,20.73
2023-12-16T02:51:39.140Z,22.97
2023-12-16T02:54:05.719Z,21.27
2023-12-16T02:56:32.341Z,20.10
2023-12-16T02:58:58.983Z,19.88
2023-12-16T03:01:25.662Z,19.38
2023-12-16T03:03:52.322Z,17.93
2023-12-16T03:06:19.008Z,17.42
2023-12-16T03:08:46.069Z,16.92
2023-12-16T03:11:12.716Z,18.20
2023-12-16T03:13:39.372Z,19.27
2023-12-16T03:16:06.300Z,16.90
2023-12-16T03:18:32.959Z,16.80
2023-12-16T03:20:59.683Z,17.05
2023-12-16T03:23:26.320Z,18.77
2023-12-16T03:25:52.958Z,16.23
2023-12-16T03:28:19.971Z,15.50
2023-12-16T03:30:46.651Z,17.55
2023-12-16T03:33:13.421Z,17.52
2023-12-16T03:35:40.140Z,16.77
2023-12-16T03:38:06.884Z,16.70
2023-12-16T03:40:33.695Z,15.20
2023-12-16T03:43:00.498Z,16.05
2023-12-16T03:45:27.170Z,15.38
2023-12-16T03:47:53.970Z,16.65
2023-12-16T03:50:20.588Z,16.40
2023-12-16T03:52:47.241Z,15.83
2023-12-16T03:55:13.967Z,17.15
2023-12-16T03:57:40.977Z,16.02
2023-12-16T04:00:09.857Z,17.02
2023-12-16T04:02:36.851Z,15.10
2023-12-16T04:05:03.838Z,19.93
2023-12-16T04:07:30.878Z,17.05
2023-12-16T04:09:57.774Z,17.25
2023-12-16T04:12:24.410Z,16.95
2023-12-16T04:14:51.257Z,16.10
2023-12-16T04:17:17.992Z,15.90
2023-12-16T04:19:55.842Z,16.25
2023-12-16T04:22:23.292Z,16.05
2023-12-16T04:24:52.040Z,16.65
2023-12-16T04:27:19.258Z,15.73
2023-12-16T04:29:46.004Z,19.57
2023-12-16T04:32:12.563Z,19.15
2023-12-16T04:34:39.276Z,19.98
2023-12-16T04:37:06.064Z,17.38
2023-12-16T04:39:32.747Z,19.90
2023-12-16T04:41:59.404Z,18.77
2023-12-16T04:44:26.092Z,18.42
2023-12-16T04:46:52.738Z,16.30
2023-12-16T04:49:19.466Z,18.40
2023-12-16T04:51:47.295Z,18.17
2023-12-16T04:54:14.041Z,17.83
2023-12-16T04:56:40.699Z,18.13
2023-12-16T04:59:07.651Z,18.42
2023-12-16T05:01:34.451Z,18.85
2023-12-16T05:04:01.512Z,15.68
2023-12-16T05:06:28.231Z,19.00
2023-12-16T05:08:54.900Z,18.17
2023-12-16T05:11:21.567Z,17.38
2023-12-16T05:13:48.259Z,17.70
2023-12-16T05:16:21.052Z,16.33
2023-12-16T05:18:48.367Z,18.37
2023-12-16T05:21:15.074Z,15.73
2023-12-16T05:23:41.700Z,20.25
2023-12-16T05:26:08.336Z,19.17
2023-12-16T05:28:34.986Z,17.75
2023-12-16T05:31:02.079Z,19.03
2023-12-16T05:33:29.428Z,21.05
2023-12-16T05:35:56.264Z,19.63
2023-12-16T05:38:22.981Z,18.00
2023-12-16T05:40:49.626Z,18.35
2023-12-16T05:43:16.304Z,18.27
2023-12-16T05:45:42.912Z,18.05
2023-12-16T05:48:10.004Z,20.23
2023-12-16T05:50:36.701Z,18.70
2023-12-16T05:53:03.476Z,18.30
2023-12-16T05:55:30.165Z,21.07
2023-12-16T05:57:57.040Z,19.10
2023-12-16T06:00:24.068Z,21.80
2023-12-16T06:02:50.763Z,21.80
2023-12-16T06:05:17.513Z,19.65
2023-12-16T06:07:44.201Z,21.07
2023-12-16T06:10:10.861Z,20.35
2023-12-16T06:12:37.525Z,21.63
2023-12-16T06:15:06.952Z,17.80
2023-12-16T06:17:33.848Z,19.13
2023-12-16T06:20:00.738Z,19.77
2023-12-16T06:22:27.602Z,18.20
2023-12-16T06:24:54.391Z,17.63
2023-12-16T06:27:21.081Z,19.33
2023-12-16T06:29:47.697Z,19.65
2023-12-16T06:32:14.265Z,22.60
2023-12-16T06:34:41.269Z,21.75
2023-12-16T06:37:08.018Z,21.75
2023-12-16T06:39:34.860Z,19.63
2023-12-16T06:42:01.573Z,20.05
2023-12-16T06:44:28.207Z,20.47
2023-12-16T06:46:54.886Z,20.42
2023-12-16T06:49:21.575Z,18.88
2023-12-16T06:51:48.279Z,18.70
2023-12-16T06:54:14.969Z,20.45
2023-12-16T06:56:41.967Z,17.63
2023-12-16T06:59:08.671Z,18.73
2023-12-16T07:01:35.299Z,19.50
2023-12-16T07:04:02.151Z,18.45
2023-12-16T07:06:28.730Z,18.85
2023-12-16T07:08:55.350Z,21.57
2023-12-16T07:11:22.328Z,22.40
2023-12-16T07:13:49.001Z,20.77
2023-12-16T07:16:16.555Z,23.65
2023-12-16T07:18:43.306Z,21.27
2023-12-16T07:21:10.110Z,20.00
2023-12-16T07:23:36.792Z,22.10
2023-12-16T07:26:03.703Z,23.88
2023-12-16T07:28:30.877Z,24.77
2023-12-16T07:30:59.621Z,31.42
2023-12-16T07:33:26.995Z,210.37
2023-12-16T07:35:55.359Z,42.88
2023-12-16T07:38:22.332Z,22.98
2023-12-16T07:40:49.036Z,24.70
2023-12-16T07:43:15.765Z,21.60
2023-12-16T07:45:42.505Z,20.23
2023-12-16T07:48:09.809Z,22.25
2023-12-16T07:50:36.580Z,20.38
2023-12-16T07:53:04.017Z,62.45
2023-12-16T07:55:31.005Z,30.98
2023-12-16T07:57:57.815Z,19.97
2023-12-16T08:00:24.472Z,24.38
2023-12-16T08:02:51.116Z,22.63
2023-12-16T08:05:19.882Z,19.73
2023-12-16T08:07:48.035Z,19.00
2023-12-16T08:10:14.857Z,24.30
2023-12-16T08:12:41.552Z,19.02
2023-12-16T08:15:09.471Z,19.63
2023-12-16T08:17:37.035Z,21.20
2023-12-16T08:20:05.334Z,20.45
2023-12-16T08:22:32.183Z,19.37
2023-12-16T08:24:59.106Z,21.75
2023-12-16T08:27:25.755Z,20.08
2023-12-16T08:29:52.450Z,20.98
2023-12-16T08:32:19.029Z,20.60
2023-12-16T08:34:45.764Z,17.87
2023-12-16T08:37:12.442Z,22.23
2023-12-16T08:39:39.207Z,18.70
2023-12-16T08:42:06.636Z,22.63
2023-12-16T08:44:33.404Z,20.20
2023-12-16T08:47:00.054Z,19.30
2023-12-16T08:49:26.778Z,18.38
2023-12-16T08:51:55.469Z,18.17
2023-12-16T08:54:22.271Z,18.02
2023-12-16T08:56:48.908Z,16.02
2023-12-16T08:59:17.214Z,19.93
2023-12-16T09:01:45.033Z,21.77
2023-12-16T09:04:11.854Z,21.33
2023-12-16T09:06:43.035Z,28.90
2023-12-16T09:09:11.774Z,23.15
2023-12-16T09:11:41.047Z,23.50
2023-12-16T09:14:07.769Z,26.08
2023-12-16T09:16:36.182Z,24.60
2023-12-16T09:19:05.050Z,22.73
2023-12-16T09:21:31.793Z,19.60
2023-12-16T09:23:58.593Z,22.40
2023-12-16T09:26:25.489Z,19.33
2023-12-16T09:28:52.862Z,22.92
2023-12-16T09:31:19.631Z,24.60
2023-12-16T09:33:46.385Z,27.45
2023-12-16T09:36:15.706Z,33.20
2023-12-16T09:38:42.763Z,24.92
2023-12-16T09:41:24.920Z,21.27
2023-12-16T09:44:04.553Z,22.42
2023-12-16T09:46:32.424Z,19.98
2023-12-16T09:49:01.388Z,20.63
2023-12-16T09:51:28.425Z,20.00
2023-12-16T09:53:55.639Z,21.45
2023-12-16T09:56:22.653Z,20.20
2023-12-16T09:58:53.070Z,19.63
2023-12-16T10:01:20.829Z,19.67
2023-12-16T10:03:48.580Z,19.63
2023-12-16T10:06:17.640Z,19.08
2023-12-16T10:08:46.109Z,19.75
2023-12-16T10:11:14.500Z,19.27
2023-12-16T10:14:02.379Z,23.53
2023-12-16T10:16:29.777Z,20.98
2023-12-16T10:18:58.288Z,19.30
2023-12-16T10:21:29.522Z,17.35
2023-12-16T10:24:00.991Z,19.13
2023-12-16T10:26:31.991Z,18.40
2023-12-16T10:29:01.534Z,18.77
2023-12-16T10:31:29.852Z,22.30
2023-12-16T10:33:56.641Z,19.48
2023-12-16T10:36:23.347Z,20.70
2023-12-16T10:38:49.976Z,16.70
2023-12-16T10:41:16.753Z,17.50
2023-12-16T10:43:43.498Z,18.85
2023-12-16T10:46:13.747Z,19.55
2023-12-16T10:48:41.225Z,18.77
2023-12-16T10:51:10.622Z,17.23
2023-12-16T10:53:42.380Z,17.60
2023-12-16T10:56:19.921Z,17.45
2023-12-16T10:58:59.608Z,18.83
2023-12-16T11:01:30.591Z,20.25
2023-12-16T11:04:07.472Z,21.30
2023-12-16T11:06:40.192Z,20.92
2023-12-16T11:09:07.570Z,21.65
2023-12-16T11:11:35.336Z,20.88
2023-12-16T11:14:02.880Z,19.88
2023-12-16T11:16:42.480Z,18.13
2023-12-16T11:19:11.937Z,19.17
2023-12-16T11:21:42.357Z,19.10
2023-12-16T11:24:10.994Z,19.77
2023-12-16T11:26:37.653Z,21.02
2023-12-16T11:29:04.604Z,19.10
2023-12-16T11:31:32.211Z,20.60
2023-12-16T11:33:59.312Z,20.17
2023-12-16T11:36:48.776Z,22.27
2023-12-16T11:39:41.546Z,17.90
2023-12-16T11:42:11.458Z,15.87
2023-12-16T11:44:54.734Z,17.00
2023-12-16T11:47:26.158Z,14.02
2023-12-16T11:49:57.430Z,16.70
2023-12-16T11:52:25.519Z,16.25
2023-12-16T11:54:56.680Z,49.03
2023-12-16T11:57:26.487Z,25.88
2023-12-16T11:59:55.255Z,16.00
2023-12-16T12:02:22.947Z,16.48
2023-12-16T12:04:49.970Z,16.48
2023-12-16T12:07:17.604Z,14.67
2023-12-16T12:09:45.417Z,15.43
2023-12-16T12:12:15.250Z,13.40
2023-12-16T12:14:46.784Z,14.95
2023-12-16T12:17:14.222Z,14.90
2023-12-16T12:19:43.628Z,14.53
2023-12-16T12:22:10.304Z,13.63
2023-12-16T12:24:37.014Z,13.65
2023-12-16T12:27:06.191Z,13.27
2023-12-16T12:30:02.935Z,13.45
2023-12-16T12:32:31.697Z,13.40
2023-12-16T12:35:08.372Z,14.40
2023-12-16T12:37:45.243Z,14.40
2023-12-16T12:40:15.322Z,15.73
2023-12-16T12:42:46.458Z,13.88
2023-12-16T12:45:33.121Z,13.17
2023-12-16T12:48:17.885Z,12.82
2023-12-16T12:50:48.583Z,15.18
2023-12-16T12:53:26.228Z,16.65
2023-12-16T12:55:55.758Z,15.15
2023-12-16T12:58:30.751Z,14.07
2023-12-16T13:00:59.689Z,13.05
2023-12-16T13:03:28.150Z,14.52
2023-12-16T13:05:56.409Z,13.77
2023-12-16T13:08:23.765Z,16.33
2023-12-16T13:10:52.644Z,14.23
2023-12-16T13:13:20.929Z,16.02
2023-12-16T13:15:54.706Z,14.77
2023-12-16T13:18:24.617Z,14.32
2023-12-16T13:20:51.757Z,12.45
2023-12-16T13:23:18.717Z,13.93
2023-12-16T13:25:45.285Z,13.52
2023-12-16T13:28:11.892Z,17.58
2023-12-16T13:30:38.658Z,20.23
2023-12-16T13:33:05.714Z,15.80
2023-12-16T13:35:33.123Z,14.33
2023-12-16T13:37:59.951Z,15.85
2023-12-16T13:40:26.644Z,11.80
2023-12-16T13:42:53.273Z,12.50
2023-12-16T13:45:19.969Z,13.45
2023-12-16T13:47:46.743Z,12.63
2023-12-16T13:50:13.495Z,12.25
2023-12-16T13:52:40.468Z,11.55
2023-12-16T13:55:07.490Z,12.75
2023-12-16T13:57:34.164Z,13.85
2023-12-16T14:00:01.517Z,14.97
2023-12-16T14:02:28.226Z,13.50
2023-12-16T14:04:55.384Z,12.70
2023-12-16T14:07:21.998Z,13.45
2023-12-16T14:09:48.614Z,13.10
2023-12-16T14:12:15.251Z,15.60
2023-12-16T14:14:41.976Z,14.35
2023-12-16T14:17:09.476Z,12.77
2023-12-16T14:19:37.797Z,12.10
2023-12-16T14:22:05.148Z,14.00
2023-12-16T14:24:31.909Z,15.17
2023-12-16T14:26:58.523Z,14.48
2023-12-16T14:29:25.196Z,15.18
2023-12-16T14:31:51.910Z,12.93
2023-12-16T14:34:20.388Z,13.30
2023-12-16T14:36:47.591Z,12.80
2023-12-16T14:39:14.780Z,17.40
2023-12-16T14:41:42.051Z,14.45
2023-12-16T14:44:08.866Z,16.67
2023-12-16T14:46:35.875Z,15.07
2023-12-16T14:49:02.749Z,14.40
2023-12-16T14:51:29.738Z,15.93
2023-12-16T14:53:56.719Z,15.63
2023-12-16T14:56:23.551Z,15.38
2023-12-16T14:58:50.157Z,13.63
2023-12-16T15:01:26.059Z,14.77
2023-12-16T15:03:52.916Z,15.80
2023-12-16T15:06:26.408Z,13.77
2023-12-16T15:08:57.207Z,15.35
2023-12-16T15:11:23.878Z,15.10
2023-12-16T15:13:50.812Z,14.17
2023-12-16T15:16:20.566Z,15.23
2023-12-16T15:18:48.595Z,16.92
2023-12-16T15:21:15.643Z,16.75
2023-12-16T15:23:42.303Z,16.88
2023-12-16T15:26:08.909Z,16.57
2023-12-16T15:28:35.491Z,14.88
2023-12-16T15:31:02.169Z,14.70
2023-12-16T15:33:29.198Z,15.02
2023-12-16T15:35:56.065Z,14.13
2023-12-16T15:38:23.006Z,14.67
2023-12-16T15:40:50.036Z,15.13
2023-12-16T15:43:16.669Z,15.40
2023-12-16T15:45:43.474Z,14.80
2023-12-16T15:48:10.293Z,14.07
2023-12-16T15:50:37.229Z,13.23
2023-12-16T15:53:07.321Z,16.70
2023-12-16T15:55:33.941Z,16.42
2023-12-16T15:58:10.814Z,16.60
2023-12-16T16:00:37.461Z,23.00
2023-12-16T16:03:05.188Z,20.17
2023-12-16T16:05:32.216Z,18.63
2023-12-16T16:08:01.430Z,19.60
2023-12-16T16:10:28.125Z,20.23
2023-12-16T16:12:55.616Z,22.20
2023-12-16T16:15:22.408Z,24.73
2023-12-16T16:17:49.786Z,22.15
2023-12-16T16:20:17.130Z,20.88
2023-12-16T16:22:44.385Z,20.05
2023-12-16T16:25:11.699Z,18.83
2023-12-16T16:27:40.534Z,19.33
2023-12-16T16:30:09.427Z,19.17
2023-12-16T16:32:36.923Z,17.00
2023-12-16T16:35:08.739Z,16.08
2023-12-16T16:37:36.205Z,18.07
2023-12-16T16:40:03.794Z,19.17
2023-12-16T16:42:30.397Z,16.67
2023-12-16T16:44:57.025Z,19.30
2023-12-16T16:47:23.884Z,16.92
2023-12-16T16:49:50.731Z,17.57
2023-12-16T16:52:17.469Z,18.60
2023-12-16T16:54:44.894Z,16.75
2023-12-16T16:57:13.088Z,17.17
2023-12-16T16:59:41.175Z,17.13
2023-12-16T17:02:08.419Z,17.60
2023-12-16T17:04:35.469Z,16.52
2023-12-16T17:07:02.110Z,17.00
2023-12-16T17:09:30.179Z,20.58
2023-12-16T17:11:57.035Z,18.48
2023-12-16T17:14:23.690Z,18.47
2023-12-16T17:16:50.308Z,17.58
2023-12-16T17:19:17.798Z,19.25
2023-12-16T17:21:45.908Z,17.25
2023-12-16T17:24:13.470Z,17.88
2023-12-16T17:26:41.656Z,20.33
2023-12-16T17:29:09.007Z,20.55
2023-12-16T17:31:37.913Z,23.02
2023-12-16T17:34:05.283Z,20.75
2023-12-16T17:36:32.311Z,21.70
2023-12-16T17:38:59.170Z,22.70
2023-12-16T17:41:25.866Z,25.58
2023-12-16T17:43:52.454Z,27.65
2023-12-16T17:46:19.058Z,27.33
2023-12-16T17:48:46.940Z,27.75
2023-12-16T17:51:14.036Z,25.90
2023-12-16T17:53:40.814Z,25.48
2023-12-16T17:56:09.224Z,23.17
2023-12-16T17:58:37.990Z,22.23
2023-12-16T18:01:05.249Z,26.42
2023-12-16T18:03:32.156Z,26.07
2023-12-16T18:05:59.164Z,26.98
2023-12-16T18:08:25.848Z,24.67
2023-12-16T18:10:53.468Z,25.17
2023-12-16T18:13:20.471Z,24.90
2023-12-16T18:15:47.349Z,30.07
2023-12-16T18:18:14.898Z,31.10
2023-12-16T18:20:59.610Z,30.00
2023-12-16T18:23:29.742Z,28.70
2023-12-16T18:26:02.130Z,29.65
2023-12-16T18:28:30.389Z,29.67
2023-12-16T18:30:58.331Z,26.08
2023-12-16T18:33:25.548Z,30.70
2023-12-16T18:35:52.341Z,29.80
2023-12-16T18:38:19.230Z,28.27
2023-12-16T18:40:45.830Z,28.10
2023-12-16T18:43:12.556Z,29.15
2023-12-16T18:45:39.659Z,28.30
2023-12-16T18:48:06.879Z,30.90
2023-12-16T18:50:33.831Z,29.95
2023-12-16T18:53:00.606Z,29.07
2023-12-16T18:55:27.225Z,33.25
2023-12-16T18:57:54.010Z,33.13
2023-12-16T19:00:21.106Z,34.60
2023-12-16T19:02:47.962Z,34.50
2023-12-16T19:05:14.729Z,39.00
2023-12-16T19:07:41.435Z,38.88
2023-12-16T19:10:09.702Z,38.33
2023-12-16T19:12:36.511Z,37.47
2023-12-16T19:15:04.615Z,33.70
2023-12-16T19:17:33.330Z,35.47
2023-12-16T19:20:00.207Z,29.10
2023-12-16T19:22:27.235Z,29.13
2023-12-16T19:24:53.869Z,23.92
2023-12-16T19:27:21.438Z,25.30
2023-12-16T19:29:48.394Z,24.80
2023-12-16T19:32:15.053Z,23.73
2023-12-16T19:34:41.960Z,23.17
2023-12-16T19:37:08.669Z,21.48
2023-12-16T19:39:35.281Z,20.73
2023-12-16T19:42:04.852Z,23.67
2023-12-16T19:44:32.295Z,24.00
2023-12-16T19:46:59.851Z,30.50
2023-12-16T19:49:27.200Z,28.30
2023-12-16T19:51:53.988Z,29.65
2023-12-16T19:54:20.941Z,29.23
2023-12-16T19:56:47.751Z,27.33
2023-12-16T19:59:14.656Z,24.70
2023-12-16T20:01:48.050Z,20.73
2023-12-16T20:04:15.569Z,24.13
2023-12-16T20:06:42.350Z,24.27
2023-12-16T20:09:11.055Z,23.15
2023-12-16T20:11:37.972Z,29.77
2023-12-16T20:14:05.209Z,26.48
2023-12-16T20:16:32.117Z,32.30
2023-12-16T20:19:00.324Z,29.63
2023-12-16T20:21:27.993Z,32.17
2023-12-16T20:23:54.640Z,33.45
2023-12-16T20:26:21.755Z,37.00
2023-12-16T20:28:48.738Z,35.95
2023-12-16T20:31:15.556Z,31.10
2023-12-16T20:33:42.356Z,30.05
2023-12-16T20:36:09.413Z,30.17
2023-12-16T20:38:54.822Z,25.92
2023-12-16T20:41:21.523Z,31.42
2023-12-16T20:43:48.398Z,33.30
2023-12-16T20:46:15.009Z,30.52
2023-12-16T20:48:43.390Z,24.35
2023-12-16T20:51:11.821Z,21.85
2023-12-16T20:53:38.510Z,21.90
2023-12-16T20:56:05.615Z,19.17
2023-12-16T20:58:32.475Z,21.95
2023-12-16T21:01:00.149Z,22.83
2023-12-16T21:03:27.054Z,23.27
2023-12-16T21:05:53.966Z,23.60
2023-12-16T21:08:21.668Z,23.03
2023-12-16T21:10:48.406Z,19.80
2023-12-16T21:13:15.022Z,22.45
2023-12-16T21:15:41.671Z,21.52
2023-12-16T21:18:08.641Z,19.85
2023-12-16T21:20:35.637Z,20.77
2023-12-16T21:23:02.327Z,26.13
2023-12-16T21:25:28.880Z,28.98
2023-12-16T21:27:55.669Z,31.65
2023-12-16T21:30:25.192Z,30.48
2023-12-16T21:32:52.605Z,24.03
2023-12-16T21:35:19.515Z,23.90
2023-12-16T21:37:46.232Z,23.23
2023-12-16T21:40:13.184Z,28.05
2023-12-16T21:42:39.842Z,23.27
2023-12-16T21:45:06.870Z,24.00
2023-12-16T21:47:33.555Z,22.95
2023-12-16T21:50:00.460Z,25.95
2023-12-16T21:52:29.164Z,24.73
2023-12-16T21:54:56.059Z,22.80
2023-12-16T21:57:24.254Z,27.47
2023-12-16T21:59:50.973Z,26.40
2023-12-16T22:02:17.629Z,28.67
2023-12-16T22:04:44.417Z,35.88
2023-12-16T22:07:11.088Z,37.85
2023-12-16T22:09:37.775Z,37.47
2023-12-16T22:12:04.580Z,37.10
2023-12-16T22:14:31.226Z,34.78
2023-12-16T22:16:58.135Z,33.30
2023-12-16T22:19:24.974Z,34.90
2023-12-16T22:21:51.688Z,32.67
2023-12-16T22:24:19.294Z,30.92
2023-12-16T22:26:46.760Z,31.20
2023-12-16T22:29:13.480Z,35.88
2023-12-16T22:31:41.921Z,32.45
2023-12-16T22:34:08.935Z,34.50
2023-12-16T22:36:35.769Z,35.63
2023-12-16T22:39:02.537Z,45.83
2023-12-16T22:41:29.230Z,64.88
2023-12-16T22:43:55.966Z,57.63
2023-12-16T22:46:22.557Z,57.43
2023-12-16T22:48:50.013Z,69.18
2023-12-16T22:51:18.306Z,58.10
2023-12-16T22:53:45.012Z,57.47
2023-12-16T22:56:17.556Z,41.78
2023-12-16T22:58:44.395Z,51.80
2023-12-16T23:01:11.124Z,46.70
2023-12-16T23:03:38.317Z,36.88
2023-12-16T23:06:05.517Z,36.65
2023-12-16T23:08:32.215Z,55.22
2023-12-16T23:10:58.894Z,54.27
2023-12-16T23:13:25.484Z,65.95
2023-12-16T23:15:52.137Z,40.95
2023-12-16T23:18:21.752Z,53.08
2023-12-16T23:20:48.490Z,30.83
2023-12-16T23:23:15.140Z,52.87
2023-12-16T23:25:43.787Z,91.10
2023-12-16T23:28:10.406Z,72.05
2023-12-16T23:30:37.029Z,45.00
2023-12-16T23:33:03.777Z,65.15
2023-12-16T23:35:30.496Z,71.83
2023-12-16T23:37:57.105Z,72.05
2023-12-16T23:40:23.710Z,69.53
2023-12-16T23:42:50.409Z,51.55
2023-12-16T23:45:17.184Z,47.30
2023-12-16T23:47:44.841Z,54.80
2023-12-16T23:50:11.935Z,31.75
2023-12-16T23:52:38.577Z,40.35
2023-12-16T23:55:07.877Z,47.85
2023-12-16T23:57:34.583Z,53.00
